sensor_id;sensor_type;location;lat;lon;timestamp;pressure;altitude;pressure_sealevel;temperature;humidity
57452;BME280;66031;51.224;-0.164;2023-03-03T00:00:59;101865.06;;;20.55;26.54
57452;BME280;66031;51.224;-0.164;2023-03-03T00:03:25;101868.31;;;20.48;26.34
57452;BME280;66031;51.224;-0.164;2023-03-03T00:05:50;101869.66;;;20.48;26.38
57452;BME280;66031;51.224;-0.164;2023-03-03T00:08:16;101867.53;;;20.52;26.49
57452;BME280;66031;51.224;-0.164;2023-03-03T00:10:40;101875.13;;;20.17;26.53
57452;BME280;66031;51.224;-0.164;2023-03-03T00:13:13;101874.86;;;19.97;26.69
57452;BME280;66031;51.224;-0.164;2023-03-03T00:15:31;101872.74;;;20.14;26.55
57452;BME280;66031;51.224;-0.164;2023-03-03T00:17:57;101879.12;;;20.48;26.51
57452;BME280;66031;51.224;-0.164;2023-03-03T00:20:29;101879.56;;;20.37;26.51
57452;BME280;66031;51.224;-0.164;2023-03-03T00:22:47;101884.48;;;20.37;26.52
57452;BME280;66031;51.224;-0.164;2023-03-03T00:25:22;101878.19;;;20.10;26.50
57452;BME280;66031;51.224;-0.164;2023-03-03T00:27:38;101877.25;;;20.31;26.51
57452;BME280;66031;51.224;-0.164;2023-03-03T00:30:16;101880.42;;;20.31;26.52
57452;BME280;66031;51.224;-0.164;2023-03-03T00:32:33;101883.88;;;20.32;26.67
57452;BME280;66031;51.224;-0.164;2023-03-03T00:34:58;101886.46;;;19.89;26.62
57452;BME280;66031;51.224;-0.164;2023-03-03T00:37:26;101891.31;;;20.14;26.56
57452;BME280;66031;51.224;-0.164;2023-03-03T00:39:44;101890.92;;;20.11;26.63
57452;BME280;66031;51.224;-0.164;2023-03-03T00:42:11;101889.70;;;20.07;26.55
57452;BME280;66031;51.224;-0.164;2023-03-03T00:44:40;101897.19;;;19.93;26.75
57452;BME280;66031;51.224;-0.164;2023-03-03T00:47:15;101900.06;;;20.31;26.60
57452;BME280;66031;51.224;-0.164;2023-03-03T00:49:26;101904.38;;;20.19;26.66
57452;BME280;66031;51.224;-0.164;2023-03-03T00:51:52;101903.95;;;19.90;26.71
57452;BME280;66031;51.224;-0.164;2023-03-03T00:54:17;101907.16;;;19.83;26.71
57452;BME280;66031;51.224;-0.164;2023-03-03T00:56:42;101903.60;;;19.86;26.64
57452;BME280;66031;51.224;-0.164;2023-03-03T00:59:07;101901.97;;;19.80;26.73
57452;BME280;66031;51.224;-0.164;2023-03-03T01:01:33;101897.67;;;20.15;26.61
57452;BME280;66031;51.224;-0.164;2023-03-03T01:03:58;101899.12;;;19.76;26.67
57452;BME280;66031;51.224;-0.164;2023-03-03T01:06:23;101902.54;;;19.98;26.70
57452;BME280;66031;51.224;-0.164;2023-03-03T01:08:49;101901.30;;;19.73;26.70
57452;BME280;66031;51.224;-0.164;2023-03-03T01:11:16;101902.36;;;19.92;26.77
57452;BME280;66031;51.224;-0.164;2023-03-03T01:13:41;101904.43;;;19.58;26.82
57452;BME280;66031;51.224;-0.164;2023-03-03T01:16:06;101907.99;;;19.92;26.65
57452;BME280;66031;51.224;-0.164;2023-03-03T01:18:30;101903.57;;;20.09;26.47
57452;BME280;66031;51.224;-0.164;2023-03-03T01:20:55;101906.51;;;19.67;26.62
57452;BME280;66031;51.224;-0.164;2023-03-03T01:23:21;101905.16;;;19.87;26.63
57452;BME280;66031;51.224;-0.164;2023-03-03T01:25:46;101904.19;;;19.88;26.61
57452;BME280;66031;51.224;-0.164;2023-03-03T01:28:12;101904.23;;;19.62;26.65
57452;BME280;66031;51.224;-0.164;2023-03-03T01:30:37;101905.35;;;19.75;26.68
57452;BME280;66031;51.224;-0.164;2023-03-03T01:33:03;101904.75;;;19.78;26.66
57452;BME280;66031;51.224;-0.164;2023-03-03T01:35:28;101902.32;;;19.67;26.74
57452;BME280;66031;51.224;-0.164;2023-03-03T01:37:53;101902.79;;;19.83;26.81
57452;BME280;66031;51.224;-0.164;2023-03-03T01:40:21;101902.50;;;19.53;26.81
57452;BME280;66031;51.224;-0.164;2023-03-03T01:42:44;101904.85;;;19.61;26.74
57452;BME280;66031;51.224;-0.164;2023-03-03T01:45:13;101904.54;;;19.41;26.90
57452;BME280;66031;51.224;-0.164;2023-03-03T01:47:34;101907.43;;;19.51;26.81
57452;BME280;66031;51.224;-0.164;2023-03-03T01:50:04;101904.12;;;19.55;26.73
57452;BME280;66031;51.224;-0.164;2023-03-03T01:52:29;101908.79;;;19.74;26.56
57452;BME280;66031;51.224;-0.164;2023-03-03T01:54:54;101906.62;;;19.66;26.57
57452;BME280;66031;51.224;-0.164;2023-03-03T01:57:21;101908.07;;;19.55;26.66
57452;BME280;66031;51.224;-0.164;2023-03-03T01:59:44;101905.13;;;19.56;26.64
57452;BME280;66031;51.224;-0.164;2023-03-03T02:02:07;101907.95;;;19.59;26.58
57452;BME280;66031;51.224;-0.164;2023-03-03T02:04:33;101908.80;;;19.31;26.62
57452;BME280;66031;51.224;-0.164;2023-03-03T02:07:00;101905.24;;;19.60;26.51
57452;BME280;66031;51.224;-0.164;2023-03-03T02:09:28;101904.84;;;19.44;26.65
57452;BME280;66031;51.224;-0.164;2023-03-03T02:11:50;101906.26;;;19.52;26.59
57452;BME280;66031;51.224;-0.164;2023-03-03T02:14:13;101903.02;;;19.52;26.57
57452;BME280;66031;51.224;-0.164;2023-03-03T02:16:39;101904.57;;;19.44;26.62
57452;BME280;66031;51.224;-0.164;2023-03-03T02:19:08;101902.30;;;19.59;26.47
57452;BME280;66031;51.224;-0.164;2023-03-03T02:21:30;101903.07;;;19.60;26.43
57452;BME280;66031;51.224;-0.164;2023-03-03T02:24:02;101905.09;;;19.59;26.46
57452;BME280;66031;51.224;-0.164;2023-03-03T02:26:22;101906.46;;;19.34;26.61
57452;BME280;66031;51.224;-0.164;2023-03-03T02:28:47;101905.02;;;19.43;26.56
57452;BME280;66031;51.224;-0.164;2023-03-03T02:31:13;101908.38;;;19.57;26.63
57452;BME280;66031;51.224;-0.164;2023-03-03T02:33:36;101899.79;;;19.40;26.55
57452;BME280;66031;51.224;-0.164;2023-03-03T02:36:02;101894.83;;;19.31;26.59
57452;BME280;66031;51.224;-0.164;2023-03-03T02:38:31;101894.88;;;19.26;26.60
57452;BME280;66031;51.224;-0.164;2023-03-03T02:40:59;101892.06;;;19.27;26.57
57452;BME280;66031;51.224;-0.164;2023-03-03T02:43:19;101894.16;;;19.31;26.59
57452;BME280;66031;51.224;-0.164;2023-03-03T02:45:44;101894.88;;;19.27;26.59
57452;BME280;66031;51.224;-0.164;2023-03-03T02:48:09;101898.17;;;19.35;26.49
57452;BME280;66031;51.224;-0.164;2023-03-03T02:50:34;101903.69;;;19.30;26.50
57452;BME280;66031;51.224;-0.164;2023-03-03T02:53:00;101903.54;;;19.25;26.52
57452;BME280;66031;51.224;-0.164;2023-03-03T02:55:25;101902.73;;;19.47;26.52
57452;BME280;66031;51.224;-0.164;2023-03-03T02:57:50;101904.71;;;19.27;26.50
57452;BME280;66031;51.224;-0.164;2023-03-03T03:00:16;101907.81;;;19.36;26.68
57452;BME280;66031;51.224;-0.164;2023-03-03T03:02:41;101904.20;;;19.59;26.66
57452;BME280;66031;51.224;-0.164;2023-03-03T03:05:07;101903.57;;;19.15;26.59
57452;BME280;66031;51.224;-0.164;2023-03-03T03:07:32;101906.89;;;19.31;26.61
57452;BME280;66031;51.224;-0.164;2023-03-03T03:09:57;101907.75;;;19.39;26.58
57452;BME280;66031;51.224;-0.164;2023-03-03T03:12:23;101906.96;;;19.11;26.61
57452;BME280;66031;51.224;-0.164;2023-03-03T03:14:48;101906.18;;;19.04;26.62
57452;BME280;66031;51.224;-0.164;2023-03-03T03:17:13;101907.47;;;19.21;26.47
57452;BME280;66031;51.224;-0.164;2023-03-03T03:19:39;101905.28;;;18.99;26.45
57452;BME280;66031;51.224;-0.164;2023-03-03T03:22:04;101905.66;;;19.15;26.50
57452;BME280;66031;51.224;-0.164;2023-03-03T03:24:30;101906.41;;;19.07;26.58
57452;BME280;66031;51.224;-0.164;2023-03-03T03:26:55;101908.87;;;19.54;26.57
57452;BME280;66031;51.224;-0.164;2023-03-03T03:29:21;101909.13;;;19.13;26.73
57452;BME280;66031;51.224;-0.164;2023-03-03T03:31:46;101911.23;;;19.09;26.51
57452;BME280;66031;51.224;-0.164;2023-03-03T03:34:12;101907.65;;;19.45;26.60
57452;BME280;66031;51.224;-0.164;2023-03-03T03:36:37;101912.19;;;19.01;26.54
57452;BME280;66031;51.224;-0.164;2023-03-03T03:39:02;101915.61;;;19.35;26.64
57452;BME280;66031;51.224;-0.164;2023-03-03T03:41:28;101919.81;;;18.86;26.64
57452;BME280;66031;51.224;-0.164;2023-03-03T03:43:53;101921.78;;;19.40;26.56
57452;BME280;66031;51.224;-0.164;2023-03-03T03:46:18;101921.83;;;19.12;26.57
57452;BME280;66031;51.224;-0.164;2023-03-03T03:48:44;101923.29;;;19.01;26.66
57452;BME280;66031;51.224;-0.164;2023-03-03T03:51:10;101923.92;;;19.25;26.70
57452;BME280;66031;51.224;-0.164;2023-03-03T03:53:35;101925.54;;;19.34;26.53
57452;BME280;66031;51.224;-0.164;2023-03-03T03:56:00;101922.41;;;19.30;26.59
57452;BME280;66031;51.224;-0.164;2023-03-03T03:58:25;101923.29;;;19.21;26.66
57452;BME280;66031;51.224;-0.164;2023-03-03T04:00:51;101923.35;;;18.82;26.56
57452;BME280;66031;51.224;-0.164;2023-03-03T04:03:16;101920.92;;;18.61;26.79
57452;BME280;66031;51.224;-0.164;2023-03-03T04:05:42;101920.54;;;19.15;26.70
57452;BME280;66031;51.224;-0.164;2023-03-03T04:08:08;101921.59;;;18.89;26.69
57452;BME280;66031;51.224;-0.164;2023-03-03T04:10:32;101925.07;;;18.72;26.64
57452;BME280;66031;51.224;-0.164;2023-03-03T04:12:58;101926.91;;;18.69;26.63
57452;BME280;66031;51.224;-0.164;2023-03-03T04:15:23;101923.23;;;19.16;26.60
57452;BME280;66031;51.224;-0.164;2023-03-03T04:17:49;101922.57;;;18.64;26.44
57452;BME280;66031;51.224;-0.164;2023-03-03T04:20:15;101920.15;;;19.33;26.42
57452;BME280;66031;51.224;-0.164;2023-03-03T04:22:39;101917.04;;;19.30;26.44
57452;BME280;66031;51.224;-0.164;2023-03-03T04:25:06;101915.98;;;19.07;26.59
57452;BME280;66031;51.224;-0.164;2023-03-03T04:27:30;101911.98;;;19.09;26.59
57452;BME280;66031;51.224;-0.164;2023-03-03T04:29:55;101911.88;;;18.82;26.58
57452;BME280;66031;51.224;-0.164;2023-03-03T04:32:21;101915.86;;;18.99;26.63
57452;BME280;66031;51.224;-0.164;2023-03-03T04:34:46;101913.91;;;19.04;26.61
57452;BME280;66031;51.224;-0.164;2023-03-03T04:37:12;101917.82;;;18.55;26.84
57452;BME280;66031;51.224;-0.164;2023-03-03T04:39:37;101918.65;;;18.66;26.74
57452;BME280;66031;51.224;-0.164;2023-03-03T04:42:03;101918.85;;;18.96;26.59
57452;BME280;66031;51.224;-0.164;2023-03-03T04:44:28;101917.36;;;18.77;26.58
57452;BME280;66031;51.224;-0.164;2023-03-03T04:46:53;101915.77;;;18.73;26.80
57452;BME280;66031;51.224;-0.164;2023-03-03T04:49:19;101916.56;;;18.69;26.86
57452;BME280;66031;51.224;-0.164;2023-03-03T04:51:44;101914.09;;;18.93;26.61
57452;BME280;66031;51.224;-0.164;2023-03-03T04:54:09;101918.61;;;18.56;26.71
57452;BME280;66031;51.224;-0.164;2023-03-03T04:56:35;101919.07;;;18.45;26.67
57452;BME280;66031;51.224;-0.164;2023-03-03T04:59:00;101920.14;;;18.44;26.82
57452;BME280;66031;51.224;-0.164;2023-03-03T05:01:26;101919.60;;;18.64;26.60
57452;BME280;66031;51.224;-0.164;2023-03-03T05:03:51;101918.73;;;18.90;26.56
57452;BME280;66031;51.224;-0.164;2023-03-03T05:06:17;101918.65;;;18.57;26.80
57452;BME280;66031;51.224;-0.164;2023-03-03T05:08:42;101917.11;;;18.58;26.77
57452;BME280;66031;51.224;-0.164;2023-03-03T05:11:07;101916.29;;;18.70;26.70
57452;BME280;66031;51.224;-0.164;2023-03-03T05:13:32;101919.15;;;18.44;26.66
57452;BME280;66031;51.224;-0.164;2023-03-03T05:15:58;101922.60;;;18.56;26.76
57452;BME280;66031;51.224;-0.164;2023-03-03T05:18:24;101926.16;;;18.78;26.44
57452;BME280;66031;51.224;-0.164;2023-03-03T05:20:50;101929.03;;;18.69;26.61
57452;BME280;66031;51.224;-0.164;2023-03-03T05:23:14;101926.00;;;18.48;26.78
57452;BME280;66031;51.224;-0.164;2023-03-03T05:25:39;101925.15;;;18.21;26.78
57452;BME280;66031;51.224;-0.164;2023-03-03T05:28:05;101925.15;;;18.21;26.80
57452;BME280;66031;51.224;-0.164;2023-03-03T05:30:30;101920.91;;;18.03;26.89
57452;BME280;66031;51.224;-0.164;2023-03-03T05:32:56;101921.14;;;18.39;26.91
57452;BME280;66031;51.224;-0.164;2023-03-03T05:35:21;101918.24;;;18.46;26.85
57452;BME280;66031;51.224;-0.164;2023-03-03T05:37:46;101920.85;;;18.77;26.55
57452;BME280;66031;51.224;-0.164;2023-03-03T05:40:13;101921.68;;;18.74;26.47
57452;BME280;66031;51.224;-0.164;2023-03-03T05:42:37;101922.28;;;18.73;26.38
57452;BME280;66031;51.224;-0.164;2023-03-03T05:45:03;101926.11;;;19.42;26.30
57452;BME280;66031;51.224;-0.164;2023-03-03T05:47:28;101925.37;;;19.57;26.21
57452;BME280;66031;51.224;-0.164;2023-03-03T05:49:53;101926.12;;;19.19;26.11
57452;BME280;66031;51.224;-0.164;2023-03-03T05:52:19;101928.16;;;19.64;25.96
57452;BME280;66031;51.224;-0.164;2023-03-03T05:54:44;101925.39;;;19.63;25.80
57452;BME280;66031;51.224;-0.164;2023-03-03T05:57:09;101929.33;;;19.78;25.73
57452;BME280;66031;51.224;-0.164;2023-03-03T05:59:35;101932.67;;;19.89;25.70
57452;BME280;66031;51.224;-0.164;2023-03-03T06:02:00;101934.73;;;20.01;25.65
57452;BME280;66031;51.224;-0.164;2023-03-03T06:04:26;101933.11;;;20.16;25.66
57452;BME280;66031;51.224;-0.164;2023-03-03T06:06:51;101936.99;;;20.36;25.36
57452;BME280;66031;51.224;-0.164;2023-03-03T06:09:16;101936.07;;;20.46;25.31
57452;BME280;66031;51.224;-0.164;2023-03-03T06:11:42;101938.08;;;20.31;25.40
57452;BME280;66031;51.224;-0.164;2023-03-03T06:14:07;101940.36;;;20.35;25.41
57452;BME280;66031;51.224;-0.164;2023-03-03T06:16:32;101944.71;;;20.52;25.24
57452;BME280;66031;51.224;-0.164;2023-03-03T06:18:58;101942.93;;;20.50;25.20
57452;BME280;66031;51.224;-0.164;2023-03-03T06:21:23;101941.14;;;20.47;25.03
57452;BME280;66031;51.224;-0.164;2023-03-03T06:23:48;101940.15;;;20.42;25.10
57452;BME280;66031;51.224;-0.164;2023-03-03T06:26:14;101942.14;;;20.60;25.01
57452;BME280;66031;51.224;-0.164;2023-03-03T06:28:39;101946.88;;;20.90;24.99
57452;BME280;66031;51.224;-0.164;2023-03-03T06:31:04;101952.09;;;21.13;24.86
57452;BME280;66031;51.224;-0.164;2023-03-03T06:33:31;101953.59;;;20.92;24.94
57452;BME280;66031;51.224;-0.164;2023-03-03T06:35:55;101955.59;;;20.75;25.02
57452;BME280;66031;51.224;-0.164;2023-03-03T06:38:20;101955.61;;;20.96;24.96
57452;BME280;66031;51.224;-0.164;2023-03-03T06:40:46;101954.45;;;20.77;25.01
57452;BME280;66031;51.224;-0.164;2023-03-03T06:43:11;101955.71;;;20.89;24.87
57452;BME280;66031;51.224;-0.164;2023-03-03T06:45:36;101957.14;;;20.93;24.88
57452;BME280;66031;51.224;-0.164;2023-03-03T06:48:02;101957.76;;;21.03;24.72
57452;BME280;66031;51.224;-0.164;2023-03-03T06:50:27;101960.13;;;21.16;24.69
57452;BME280;66031;51.224;-0.164;2023-03-03T06:53:00;101966.15;;;21.34;24.53
57452;BME280;66031;51.224;-0.164;2023-03-03T06:55:22;101965.05;;;21.44;24.43
57452;BME280;66031;51.224;-0.164;2023-03-03T06:57:43;101967.50;;;21.22;24.41
57452;BME280;66031;51.224;-0.164;2023-03-03T07:00:16;101968.43;;;21.55;24.40
57452;BME280;66031;51.224;-0.164;2023-03-03T07:02:33;101972.20;;;21.15;24.31
57452;BME280;66031;51.224;-0.164;2023-03-03T07:04:59;101974.34;;;21.63;24.41
57452;BME280;66031;51.224;-0.164;2023-03-03T07:07:25;101974.41;;;21.47;24.37
57452;BME280;66031;51.224;-0.164;2023-03-03T07:09:51;101974.23;;;21.67;24.25
57452;BME280;66031;51.224;-0.164;2023-03-03T07:12:17;101974.20;;;21.81;24.18
57452;BME280;66031;51.224;-0.164;2023-03-03T07:14:42;101978.89;;;21.61;24.23
57452;BME280;66031;51.224;-0.164;2023-03-03T07:17:13;101976.66;;;21.73;24.16
57452;BME280;66031;51.224;-0.164;2023-03-03T07:19:33;101979.90;;;21.57;24.11
57452;BME280;66031;51.224;-0.164;2023-03-03T07:21:57;101985.59;;;21.88;24.08
57452;BME280;66031;51.224;-0.164;2023-03-03T07:24:26;101987.15;;;21.55;24.23
57452;BME280;66031;51.224;-0.164;2023-03-03T07:26:46;101987.51;;;21.54;24.19
57452;BME280;66031;51.224;-0.164;2023-03-03T07:29:20;101986.81;;;21.53;24.18
57452;BME280;66031;51.224;-0.164;2023-03-03T07:31:39;101992.23;;;21.49;24.23
57452;BME280;66031;51.224;-0.164;2023-03-03T07:34:13;101995.14;;;21.45;24.21
57452;BME280;66031;51.224;-0.164;2023-03-03T07:36:30;101992.91;;;21.59;24.14
57452;BME280;66031;51.224;-0.164;2023-03-03T07:38:54;101992.92;;;21.68;24.30
57452;BME280;66031;51.224;-0.164;2023-03-03T07:41:19;101997.44;;;21.67;24.16
57452;BME280;66031;51.224;-0.164;2023-03-03T07:43:48;102000.55;;;21.70;24.15
57452;BME280;66031;51.224;-0.164;2023-03-03T07:46:24;102003.19;;;22.06;24.03
57452;BME280;66031;51.224;-0.164;2023-03-03T07:48:35;102007.37;;;21.81;24.70
57452;BME280;66031;51.224;-0.164;2023-03-03T07:51:03;102011.51;;;21.38;24.70
57452;BME280;66031;51.224;-0.164;2023-03-03T07:53:28;102005.95;;;21.70;24.44
57452;BME280;66031;51.224;-0.164;2023-03-03T07:55:50;102008.70;;;22.02;24.40
57452;BME280;66031;51.224;-0.164;2023-03-03T07:58:21;102007.09;;;21.80;24.39
57452;BME280;66031;51.224;-0.164;2023-03-03T08:03:10;102015.58;;;21.78;24.45
57452;BME280;66031;51.224;-0.164;2023-03-03T08:05:34;102021.03;;;21.75;24.43
57452;BME280;66031;51.224;-0.164;2023-03-03T08:10:31;102026.11;;;21.45;25.03
57452;BME280;66031;51.224;-0.164;2023-03-03T08:12:46;102027.67;;;21.65;24.85
57452;BME280;66031;51.224;-0.164;2023-03-03T08:15:19;102027.13;;;21.64;24.76
57452;BME280;66031;51.224;-0.164;2023-03-03T08:17:38;102028.32;;;21.29;24.52
57452;BME280;66031;51.224;-0.164;2023-03-03T08:22:32;102035.92;;;21.17;24.47
57452;BME280;66031;51.224;-0.164;2023-03-03T08:24:53;102034.06;;;20.96;24.71
57452;BME280;66031;51.224;-0.164;2023-03-03T08:27:18;102037.13;;;21.45;24.95
57452;BME280;66031;51.224;-0.164;2023-03-03T08:29:44;102038.09;;;21.10;24.72
57452;BME280;66031;51.224;-0.164;2023-03-03T08:32:09;102041.46;;;21.08;24.64
57452;BME280;66031;51.224;-0.164;2023-03-03T08:34:34;102044.65;;;21.02;24.93
57452;BME280;66031;51.224;-0.164;2023-03-03T08:37:00;102046.32;;;20.98;24.81
57452;BME280;66031;51.224;-0.164;2023-03-03T08:39:25;102050.58;;;20.78;24.88
57452;BME280;66031;51.224;-0.164;2023-03-03T08:41:50;102054.28;;;20.37;25.38
57452;BME280;66031;51.224;-0.164;2023-03-03T08:44:15;102052.85;;;20.81;25.49
57452;BME280;66031;51.224;-0.164;2023-03-03T08:46:41;102052.83;;;20.83;25.33
57452;BME280;66031;51.224;-0.164;2023-03-03T08:49:06;102053.38;;;20.49;25.48
57452;BME280;66031;51.224;-0.164;2023-03-03T08:51:31;102054.32;;;20.70;25.36
57452;BME280;66031;51.224;-0.164;2023-03-03T08:53:57;102054.32;;;20.59;25.15
57452;BME280;66031;51.224;-0.164;2023-03-03T08:56:22;102051.56;;;20.48;25.47
57452;BME280;66031;51.224;-0.164;2023-03-03T08:58:48;102055.55;;;20.27;25.27
57452;BME280;66031;51.224;-0.164;2023-03-03T09:01:14;102049.18;;;20.68;25.69
57452;BME280;66031;51.224;-0.164;2023-03-03T09:03:38;102048.19;;;20.55;25.50
57452;BME280;66031;51.224;-0.164;2023-03-03T09:06:04;102048.32;;;20.37;25.47
57452;BME280;66031;51.224;-0.164;2023-03-03T09:08:29;102051.99;;;20.22;25.34
57452;BME280;66031;51.224;-0.164;2023-03-03T09:10:54;102044.50;;;20.43;25.58
57452;BME280;66031;51.224;-0.164;2023-03-03T09:13:19;102044.08;;;20.44;25.57
57452;BME280;66031;51.224;-0.164;2023-03-03T09:15:46;102041.34;;;19.94;25.73
57452;BME280;66031;51.224;-0.164;2023-03-03T09:18:15;102040.94;;;20.04;25.67
57452;BME280;66031;51.224;-0.164;2023-03-03T09:20:38;102042.03;;;20.44;25.58
57452;BME280;66031;51.224;-0.164;2023-03-03T09:25:31;102035.23;;;20.33;25.30
57452;BME280;66031;51.224;-0.164;2023-03-03T09:27:52;102037.57;;;20.39;25.55
57452;BME280;66031;51.224;-0.164;2023-03-03T09:30:27;102039.44;;;19.89;25.82
57452;BME280;66031;51.224;-0.164;2023-03-03T09:32:42;102037.15;;;20.17;25.83
57452;BME280;66031;51.224;-0.164;2023-03-03T09:37:35;102035.50;;;19.97;25.81
57452;BME280;66031;51.224;-0.164;2023-03-03T09:39:58;102035.38;;;20.01;25.73
57452;BME280;66031;51.224;-0.164;2023-03-03T09:42:35;102039.84;;;20.02;25.76
57452;BME280;66031;51.224;-0.164;2023-03-03T09:45:08;102043.63;;;19.91;25.86
57452;BME280;66031;51.224;-0.164;2023-03-03T09:47:26;102046.00;;;19.92;25.83
57452;BME280;66031;51.224;-0.164;2023-03-03T09:49:47;102045.54;;;20.10;25.89
57452;BME280;66031;51.224;-0.164;2023-03-03T09:52:18;102046.97;;;19.98;26.02
57452;BME280;66031;51.224;-0.164;2023-03-03T09:54:40;102050.43;;;19.99;26.02
57452;BME280;66031;51.224;-0.164;2023-03-03T09:57:03;102050.97;;;19.68;26.12
57452;BME280;66031;51.224;-0.164;2023-03-03T09:59:30;102049.31;;;19.92;26.11
57452;BME280;66031;51.224;-0.164;2023-03-03T10:01:54;102052.93;;;19.64;26.15
57452;BME280;66031;51.224;-0.164;2023-03-03T10:06:41;102055.31;;;19.95;26.04
57452;BME280;66031;51.224;-0.164;2023-03-03T10:11:33;102061.26;;;19.62;26.24
57452;BME280;66031;51.224;-0.164;2023-03-03T10:14:03;102065.37;;;20.07;26.26
57452;BME280;66031;51.224;-0.164;2023-03-03T10:16:33;102067.46;;;20.01;26.30
57452;BME280;66031;51.224;-0.164;2023-03-03T10:18:47;102068.06;;;19.88;26.22
57452;BME280;66031;51.224;-0.164;2023-03-03T10:21:10;102068.62;;;19.83;26.20
57452;BME280;66031;51.224;-0.164;2023-03-03T10:26:07;102072.48;;;19.69;26.37
57452;BME280;66031;51.224;-0.164;2023-03-03T10:28:48;102071.32;;;19.83;26.45
57452;BME280;66031;51.224;-0.164;2023-03-03T10:30:59;102072.20;;;19.74;26.51
57452;BME280;66031;51.224;-0.164;2023-03-03T10:33:21;102071.16;;;19.50;26.47
57452;BME280;66031;51.224;-0.164;2023-03-03T10:35:59;102072.46;;;19.47;26.48
57452;BME280;66031;51.224;-0.164;2023-03-03T10:40:34;102073.91;;;19.63;26.51
57452;BME280;66031;51.224;-0.164;2023-03-03T10:43:15;102074.41;;;19.69;26.43
57452;BME280;66031;51.224;-0.164;2023-03-03T10:45:35;102076.95;;;19.39;26.50
57452;BME280;66031;51.224;-0.164;2023-03-03T10:47:57;102072.06;;;19.57;26.50
57452;BME280;66031;51.224;-0.164;2023-03-03T10:50:18;102078.22;;;19.33;26.51
57452;BME280;66031;51.224;-0.164;2023-03-03T10:52:45;102078.69;;;19.51;26.60
57452;BME280;66031;51.224;-0.164;2023-03-03T10:57:34;102082.88;;;19.50;26.62
57452;BME280;66031;51.224;-0.164;2023-03-03T11:00:03;102084.80;;;19.45;26.63
57452;BME280;66031;51.224;-0.164;2023-03-03T11:02:24;102086.93;;;19.42;26.66
57452;BME280;66031;51.224;-0.164;2023-03-03T11:04:58;102089.67;;;19.40;26.68
57452;BME280;66031;51.224;-0.164;2023-03-03T11:07:15;102090.80;;;19.44;26.59
57452;BME280;66031;51.224;-0.164;2023-03-03T11:09:46;102091.10;;;19.40;26.62
57452;BME280;66031;51.224;-0.164;2023-03-03T11:12:11;102091.85;;;19.16;26.62
57452;BME280;66031;51.224;-0.164;2023-03-03T11:14:32;102097.24;;;19.49;26.55
57452;BME280;66031;51.224;-0.164;2023-03-03T11:16:57;102095.65;;;19.24;26.52
57452;BME280;66031;51.224;-0.164;2023-03-03T11:19:30;102095.59;;;19.39;26.26
57452;BME280;66031;51.224;-0.164;2023-03-03T11:21:48;102095.84;;;19.61;26.21
57452;BME280;66031;51.224;-0.164;2023-03-03T11:24:17;102094.28;;;19.52;26.38
57452;BME280;66031;51.224;-0.164;2023-03-03T11:26:43;102094.59;;;19.43;26.47
57452;BME280;66031;51.224;-0.164;2023-03-03T11:29:09;102096.28;;;19.37;26.60
57452;BME280;66031;51.224;-0.164;2023-03-03T11:31:27;102094.71;;;19.33;26.65
57452;BME280;66031;51.224;-0.164;2023-03-03T11:33:57;102098.79;;;19.27;26.67
57452;BME280;66031;51.224;-0.164;2023-03-03T11:36:19;102093.84;;;19.18;26.76
57452;BME280;66031;51.224;-0.164;2023-03-03T11:38:47;102089.34;;;19.07;26.83
57452;BME280;66031;51.224;-0.164;2023-03-03T11:41:12;102088.95;;;19.17;26.75
57452;BME280;66031;51.224;-0.164;2023-03-03T11:43:35;102090.84;;;19.08;26.83
57452;BME280;66031;51.224;-0.164;2023-03-03T11:46:01;102092.56;;;19.03;26.81
57452;BME280;66031;51.224;-0.164;2023-03-03T11:48:29;102091.72;;;19.15;26.57
57452;BME280;66031;51.224;-0.164;2023-03-03T11:50:54;102089.88;;;19.04;26.67
57452;BME280;66031;51.224;-0.164;2023-03-03T11:53:24;102088.10;;;19.16;26.67
57452;BME280;66031;51.224;-0.164;2023-03-03T11:55:40;102086.68;;;19.21;26.66
57452;BME280;66031;51.224;-0.164;2023-03-03T11:58:11;102086.98;;;19.26;26.59
57452;BME280;66031;51.224;-0.164;2023-03-03T12:00:32;102079.30;;;19.34;26.74
57452;BME280;66031;51.224;-0.164;2023-03-03T12:03:10;102079.92;;;19.08;26.75
57452;BME280;66031;51.224;-0.164;2023-03-03T12:05:30;102081.92;;;19.15;26.74
57452;BME280;66031;51.224;-0.164;2023-03-03T12:07:51;102080.10;;;18.85;26.78
57452;BME280;66031;51.224;-0.164;2023-03-03T12:10:18;102080.78;;;19.21;26.86
57452;BME280;66031;51.224;-0.164;2023-03-03T12:12:38;102081.35;;;19.21;26.88
57452;BME280;66031;51.224;-0.164;2023-03-03T12:15:09;102079.38;;;18.81;27.00
57452;BME280;66031;51.224;-0.164;2023-03-03T12:17:38;102081.17;;;18.82;26.95
57452;BME280;66031;51.224;-0.164;2023-03-03T12:19:55;102076.79;;;18.97;26.80
57452;BME280;66031;51.224;-0.164;2023-03-03T12:22:25;102078.19;;;19.00;26.78
57452;BME280;66031;51.224;-0.164;2023-03-03T12:24:59;102076.98;;;19.19;26.78
57452;BME280;66031;51.224;-0.164;2023-03-03T12:27:16;102077.04;;;18.95;26.79
57452;BME280;66031;51.224;-0.164;2023-03-03T12:29:40;102076.70;;;19.11;27.02
57452;BME280;66031;51.224;-0.164;2023-03-03T12:32:06;102072.07;;;18.88;26.77
57452;BME280;66031;51.224;-0.164;2023-03-03T12:34:29;102074.23;;;19.05;26.75
57452;BME280;66031;51.224;-0.164;2023-03-03T12:36:59;102069.56;;;19.30;26.69
57452;BME280;66031;51.224;-0.164;2023-03-03T12:39:23;102069.15;;;18.81;26.76
57452;BME280;66031;51.224;-0.164;2023-03-03T12:41:45;102069.69;;;19.02;26.78
57452;BME280;66031;51.224;-0.164;2023-03-03T12:44:13;102069.04;;;19.14;26.82
57452;BME280;66031;51.224;-0.164;2023-03-03T12:46:39;102066.79;;;19.14;26.87
57452;BME280;66031;51.224;-0.164;2023-03-03T12:48:56;102069.22;;;19.21;26.79
57452;BME280;66031;51.224;-0.164;2023-03-03T12:51:32;102068.40;;;18.76;26.74
57452;BME280;66031;51.224;-0.164;2023-03-03T12:54:08;102063.05;;;19.07;26.67